createdAt,value
2019-06-26T00:01:10.309Z,102014.61
2019-06-26T00:03:41.197Z,102016.20
2019-06-26T00:06:12.499Z,102015.31
2019-06-26T00:08:43.220Z,102014.49
2019-06-26T00:11:13.857Z,102015.48
2019-06-26T00:13:44.602Z,102010.88
2019-06-26T00:16:15.272Z,102007.98
2019-06-26T00:18:45.932Z,102012.08
2019-06-26T00:21:16.847Z,102015.63
2019-06-26T00:23:47.681Z,102015.27
2019-06-26T00:26:18.412Z,102014.62
2019-06-26T00:28:49.053Z,102017.73
2019-06-26T00:31:19.717Z,102022.79
2019-06-26T00:33:50.366Z,102019.59
2019-06-26T00:36:21.021Z,102022.00
2019-06-26T00:38:51.668Z,102024.70
2019-06-26T00:41:22.471Z,102019.48
2019-06-26T00:43:53.200Z,102017.44
2019-06-26T00:46:23.961Z,102022.05
2019-06-26T00:48:54.586Z,102022.52
2019-06-26T00:51:25.337Z,102034.02
2019-06-26T00:53:55.959Z,102032.25
2019-06-26T00:56:26.685Z,102033.01
2019-06-26T00:58:57.417Z,102037.34
2019-06-26T01:01:28.145Z,102030.06
2019-06-26T01:04:00.422Z,102034.31
2019-06-26T01:06:45.690Z,102035.28
2019-06-26T01:09:16.374Z,102040.98
2019-06-26T01:11:47.054Z,102046.08
2019-06-26T01:14:17.652Z,102048.98
2019-06-26T01:16:49.389Z,102050.08
2019-06-26T01:19:20.091Z,102055.41
2019-06-26T01:21:50.841Z,102048.99
2019-06-26T01:24:21.530Z,102060.02
2019-06-26T01:26:52.448Z,102073.58
2019-06-26T01:29:24.047Z,102065.95
2019-06-26T01:31:54.734Z,102068.38
2019-06-26T01:34:25.436Z,102067.52
2019-06-26T01:36:56.106Z,102068.75
2019-06-26T01:39:26.801Z,102065.68
2019-06-26T01:41:57.616Z,102075.23
2019-06-26T01:44:28.251Z,102070.41
2019-06-26T01:46:59.062Z,102083.36
2019-06-26T01:49:29.703Z,102081.52
2019-06-26T01:52:00.681Z,102081.30
2019-06-26T01:54:31.360Z,102085.89
2019-06-26T01:57:03.119Z,102073.07
2019-06-26T01:59:33.769Z,102077.29
2019-06-26T02:02:04.568Z,102081.83
2019-06-26T02:04:36.228Z,102078.30
2019-06-26T02:07:06.930Z,102082.02
2019-06-26T02:09:37.567Z,102082.39
2019-06-26T02:12:08.547Z,102085.14
2019-06-26T02:14:39.192Z,102091.95
2019-06-26T02:17:09.861Z,102094.25
2019-06-26T02:19:40.561Z,102101.97
2019-06-26T02:22:11.815Z,102101.54
2019-06-26T02:24:43.444Z,102103.39
2019-06-26T02:27:14.125Z,102103.52
2019-06-26T02:29:44.766Z,102110.17
2019-06-26T02:32:15.513Z,102118.39
2019-06-26T02:34:46.258Z,102108.39
2019-06-26T02:37:16.995Z,102117.06
2019-06-26T02:39:47.851Z,102112.94
2019-06-26T02:42:18.707Z,102115.12
2019-06-26T02:44:53.958Z,102117.47
2019-06-26T02:47:22.019Z,102112.03
2019-06-26T02:49:52.718Z,102119.94
2019-06-26T02:52:24.446Z,102119.39
2019-06-26T02:54:55.247Z,102122.80
2019-06-26T02:57:26.011Z,102126.28
2019-06-26T02:59:56.744Z,102130.13
2019-06-26T03:02:27.443Z,102134.48
2019-06-26T03:04:58.185Z,102138.27
2019-06-26T03:07:28.923Z,102148.30
2019-06-26T03:09:59.689Z,102147.22
2019-06-26T03:12:30.350Z,102152.48
2019-06-26T03:15:08.658Z,102160.09
2019-06-26T03:17:33.445Z,102161.23
2019-06-26T03:20:07.358Z,102164.95
2019-06-26T03:22:38.116Z,102167.72
2019-06-26T03:25:09.129Z,102171.34
2019-06-26T03:27:39.806Z,102176.89
2019-06-26T03:30:13.633Z,102182.95
2019-06-26T03:32:44.430Z,102181.06
2019-06-26T03:35:15.469Z,102181.95
2019-06-26T03:37:46.226Z,102182.75
2019-06-26T03:40:18.594Z,102193.30
2019-06-26T03:42:49.294Z,102191.55
2019-06-26T03:45:25.722Z,102203.59
2019-06-26T03:47:52.735Z,102210.34
2019-06-26T03:50:23.723Z,102213.27
2019-06-26T03:52:54.564Z,102219.30
2019-06-26T03:55:25.267Z,102215.59
2019-06-26T03:57:56.055Z,102220.41
2019-06-26T04:00:44.086Z,102216.37
2019-06-26T04:03:14.884Z,102222.07
2019-06-26T04:05:45.772Z,102227.31
2019-06-26T04:08:16.486Z,102222.77
2019-06-26T04:10:47.385Z,102228.75
2019-06-26T04:13:18.144Z,102239.87
2019-06-26T04:15:50.936Z,102237.09
2019-06-26T04:18:21.151Z,102245.55
2019-06-26T04:20:51.786Z,102246.86
2019-06-26T04:23:22.450Z,102247.59
2019-06-26T04:25:53.078Z,102257.44
2019-06-26T04:28:23.785Z,102258.33
2019-06-26T04:30:54.566Z,102258.89
2019-06-26T04:33:25.239Z,102258.58
2019-06-26T04:35:55.849Z,102263.22
2019-06-26T04:38:26.588Z,102267.12
2019-06-26T04:40:57.218Z,102269.53
2019-06-26T04:43:28.008Z,102270.34
2019-06-26T04:45:59.770Z,102274.28
2019-06-26T04:48:30.429Z,102272.45
2019-06-26T04:51:01.203Z,102274.00
2019-06-26T04:53:31.991Z,102273.41
2019-06-26T04:56:02.684Z,102267.06
2019-06-26T04:58:33.414Z,102266.81
2019-06-26T05:01:04.311Z,102272.54
2019-06-26T05:03:34.984Z,102270.69
2019-06-26T05:06:06.950Z,102276.59
2019-06-26T05:08:37.589Z,102271.72
2019-06-26T05:11:08.350Z,102279.75
2019-06-26T05:13:39.097Z,102280.64
2019-06-26T05:16:15.103Z,102284.55
2019-06-26T05:18:42.318Z,102279.47
2019-06-26T05:21:13.074Z,102283.78
2019-06-26T05:23:43.828Z,102282.01
2019-06-26T05:26:14.755Z,102281.14
2019-06-26T05:28:45.430Z,102283.41
2019-06-26T05:31:16.113Z,102284.95
2019-06-26T05:33:47.424Z,102285.20
2019-06-26T05:36:18.125Z,102290.09
2019-06-26T05:38:48.741Z,102292.62
2019-06-26T05:41:19.562Z,102303.25
2019-06-26T05:43:50.208Z,102305.06
2019-06-26T05:46:30.511Z,102308.09
2019-06-26T05:48:53.312Z,102305.89
2019-06-26T05:51:24.169Z,102315.01
2019-06-26T05:53:54.858Z,102315.57
2019-06-26T05:56:25.580Z,102333.34
2019-06-26T05:58:56.434Z,102334.08
2019-06-26T06:01:27.373Z,102348.58
2019-06-26T06:03:59.172Z,102344.55
2019-06-26T06:06:41.079Z,102346.23
2019-06-26T06:09:02.577Z,102338.64
2019-06-26T06:11:33.513Z,102337.19
2019-06-26T06:14:04.288Z,102343.75
2019-06-26T06:16:46.777Z,102343.98
2019-06-26T06:19:07.478Z,102339.62
2019-06-26T06:21:38.260Z,102340.36
2019-06-26T06:24:10.087Z,102340.06
2019-06-26T06:26:40.715Z,102337.70
2019-06-26T06:29:11.395Z,102342.89
2019-06-26T06:31:42.085Z,102347.75
2019-06-26T06:34:12.763Z,102349.59
2019-06-26T06:36:43.443Z,102344.73
2019-06-26T06:39:14.184Z,102347.27
2019-06-26T06:41:44.883Z,102359.25
2019-06-26T06:44:15.704Z,102367.75
2019-06-26T06:46:59.616Z,102368.45
2019-06-26T06:49:19.011Z,102377.02
2019-06-26T06:51:50.073Z,102381.13
2019-06-26T06:54:20.820Z,102380.33
2019-06-26T06:56:51.505Z,102387.77
2019-06-26T06:59:22.639Z,102383.55
2019-06-26T07:01:53.295Z,102398.56
2019-06-26T07:04:23.991Z,102391.78
2019-06-26T07:06:54.685Z,102390.41
2019-06-26T07:09:25.488Z,102400.59
2019-06-26T07:11:56.350Z,102406.40
2019-06-26T07:14:27.211Z,102400.34
2019-06-26T07:17:01.348Z,102399.84
2019-06-26T07:19:30.489Z,102400.31
2019-06-26T07:22:01.297Z,102402.86
2019-06-26T07:24:32.029Z,102418.20
2019-06-26T07:27:02.651Z,102418.70
2019-06-26T07:29:33.399Z,102429.45
2019-06-26T07:32:04.067Z,102428.92
2019-06-26T07:34:34.978Z,102436.69
2019-06-26T07:37:05.753Z,102438.05
2019-06-26T07:39:36.676Z,102439.08
2019-06-26T07:42:07.364Z,102447.73
2019-06-26T07:44:38.092Z,102449.52
2019-06-26T07:47:22.621Z,102451.99
2019-06-26T07:49:41.837Z,102455.12
2019-06-26T07:52:12.476Z,102460.09
2019-06-26T07:54:43.173Z,102460.03
2019-06-26T07:57:13.975Z,102464.48
2019-06-26T07:59:44.635Z,102469.13
2019-06-26T08:02:16.973Z,102469.57
2019-06-26T08:04:47.771Z,102482.08
2019-06-26T08:07:18.483Z,102481.83
2019-06-26T08:09:49.352Z,102483.39
2019-06-26T08:12:20.064Z,102482.80
2019-06-26T08:14:50.765Z,102485.98
2019-06-26T08:17:21.481Z,102483.28
2019-06-26T08:19:52.146Z,102474.37
2019-06-26T08:22:22.966Z,102480.48
2019-06-26T08:24:53.760Z,102480.75
2019-06-26T08:27:24.798Z,102490.46
2019-06-26T08:29:55.784Z,102489.95
2019-06-26T08:32:26.505Z,102488.80
2019-06-26T08:34:57.193Z,102494.56
2019-06-26T08:37:28.120Z,102493.03
2019-06-26T08:39:58.817Z,102488.48
2019-06-26T08:42:29.542Z,102491.30
2019-06-26T08:45:00.467Z,102494.94
2019-06-26T08:47:31.314Z,102500.64
2019-06-26T08:50:02.535Z,102501.84
2019-06-26T08:52:33.652Z,102504.97
2019-06-26T08:55:08.490Z,102512.06
2019-06-26T08:57:39.332Z,102503.33
2019-06-26T09:00:11.882Z,102500.64
2019-06-26T09:02:42.609Z,102504.89
2019-06-26T09:05:14.038Z,102496.91
2019-06-26T09:07:44.723Z,102500.05
2019-06-26T09:10:15.836Z,102502.11
2019-06-26T09:12:46.851Z,102495.00
2019-06-26T09:15:17.986Z,102493.20
2019-06-26T09:17:48.671Z,102498.38
2019-06-26T09:20:29.772Z,102491.16
2019-06-26T09:23:00.516Z,102492.85
2019-06-26T09:25:31.290Z,102492.13
2019-06-26T09:28:01.955Z,102492.20
2019-06-26T09:30:32.839Z,102487.45
2019-06-26T09:33:03.501Z,102500.09
2019-06-26T09:35:35.106Z,102507.17
2019-06-26T09:38:06.173Z,102503.05
2019-06-26T09:40:37.039Z,102514.20
2019-06-26T09:43:07.832Z,102510.70
2019-06-26T09:45:38.506Z,102512.15
2019-06-26T09:48:09.974Z,102509.66
2019-06-26T09:50:40.707Z,102524.13
2019-06-26T09:53:11.497Z,102525.33
2019-06-26T09:55:42.330Z,102526.11
2019-06-26T09:58:13.752Z,102526.89
2019-06-26T10:00:44.577Z,102517.91
2019-06-26T10:03:15.419Z,102516.66
2019-06-26T10:05:46.171Z,102511.55
2019-06-26T10:08:16.830Z,102518.09
2019-06-26T10:10:47.808Z,102508.94
2019-06-26T10:13:18.681Z,102520.58
2019-06-26T10:15:49.456Z,102527.70
2019-06-26T10:18:20.353Z,102524.63
2019-06-26T10:20:51.061Z,102524.53
2019-06-26T10:23:21.834Z,102531.80
2019-06-26T10:25:53.254Z,102531.12
2019-06-26T10:28:27.606Z,102535.45
2019-06-26T10:30:58.229Z,102553.25
2019-06-26T10:33:29.014Z,102541.20
2019-06-26T10:35:59.775Z,102537.12
2019-06-26T10:38:31.672Z,102526.88
2019-06-26T10:41:02.473Z,102525.70
2019-06-26T10:43:34.409Z,102521.00
2019-06-26T10:46:06.601Z,102535.81
2019-06-26T10:48:40.911Z,102549.89
2019-06-26T10:51:11.650Z,102553.94
2019-06-26T10:53:42.381Z,102552.70
2019-06-26T10:56:13.163Z,102556.36
2019-06-26T10:58:43.847Z,102560.77
2019-06-26T11:01:14.671Z,102559.78
2019-06-26T11:03:45.467Z,102557.09
2019-06-26T11:06:16.211Z,102552.89
2019-06-26T11:08:46.925Z,102543.64
2019-06-26T11:11:17.594Z,102556.27
2019-06-26T11:13:48.414Z,102557.97
2019-06-26T11:16:19.089Z,102556.38
2019-06-26T11:18:49.857Z,102558.38
2019-06-26T11:21:20.556Z,102552.66
2019-06-26T11:23:52.301Z,102555.18
2019-06-26T11:26:23.060Z,102554.59
2019-06-26T11:28:53.892Z,102547.16
2019-06-26T11:31:24.658Z,102548.55
2019-06-26T11:33:55.567Z,102546.75
2019-06-26T11:36:26.250Z,102553.17
2019-06-26T11:38:57.001Z,102555.18
2019-06-26T11:41:28.786Z,102560.17
2019-06-26T11:43:59.738Z,102561.69
2019-06-26T11:46:30.467Z,102553.61
2019-06-26T11:49:01.105Z,102557.36
2019-06-26T11:51:31.994Z,102552.86
2019-06-26T11:54:02.721Z,102565.26
2019-06-26T11:56:33.492Z,102561.09
2019-06-26T11:59:04.509Z,102560.20
2019-06-26T12:01:35.186Z,102562.44
2019-06-26T12:04:06.227Z,102569.26
2019-06-26T12:06:37.120Z,102568.55
2019-06-26T12:09:09.643Z,102566.43
2019-06-26T12:11:40.655Z,102565.44
2019-06-26T12:14:11.504Z,102566.60
2019-06-26T12:16:42.399Z,102558.82
2019-06-26T12:19:13.156Z,102565.77
2019-06-26T12:21:43.858Z,102565.56
2019-06-26T12:24:14.595Z,102573.16
2019-06-26T12:26:45.411Z,102563.08
2019-06-26T12:29:16.015Z,102567.09
2019-06-26T12:31:46.728Z,102564.75
2019-06-26T12:34:17.375Z,102566.47
2019-06-26T12:36:48.114Z,102561.20
2019-06-26T12:39:18.835Z,102564.16
2019-06-26T12:41:49.540Z,102564.38
2019-06-26T12:44:20.155Z,102562.28
2019-06-26T12:46:50.877Z,102572.94
2019-06-26T12:49:21.496Z,102563.29
2019-06-26T12:51:53.128Z,102568.36
2019-06-26T12:54:23.836Z,102567.35
2019-06-26T12:56:54.879Z,102569.13
2019-06-26T12:59:25.613Z,102571.84
2019-06-26T13:01:56.562Z,102572.45
2019-06-26T13:04:27.259Z,102583.58
2019-06-26T13:06:59.062Z,102579.46
2019-06-26T13:09:29.835Z,102580.67
2019-06-26T13:12:00.576Z,102580.05
2019-06-26T13:14:31.199Z,102585.34
2019-06-26T13:17:02.132Z,102583.09
2019-06-26T13:19:32.931Z,102589.25
2019-06-26T13:22:03.588Z,102581.16
2019-06-26T13:24:34.487Z,102579.32
2019-06-26T13:27:05.345Z,102576.20
2019-06-26T13:29:36.018Z,102572.95
2019-06-26T13:32:07.369Z,102569.30
2019-06-26T13:34:38.078Z,102569.69
2019-06-26T13:37:08.724Z,102568.22
2019-06-26T13:39:39.379Z,102561.02
2019-06-26T13:42:10.784Z,102566.41
2019-06-26T13:44:41.419Z,102563.74
2019-06-26T13:47:12.150Z,102566.98
2019-06-26T13:49:42.879Z,102566.78
2019-06-26T13:52:13.799Z,102562.14
2019-06-26T13:54:46.231Z,102560.01
2019-06-26T13:57:17.029Z,102559.56
2019-06-26T13:59:47.739Z,102564.90
2019-06-26T14:02:19.946Z,102566.75
2019-06-26T14:04:50.766Z,102562.36
2019-06-26T14:07:21.529Z,102558.94
2019-06-26T14:09:52.257Z,102561.34
2019-06-26T14:12:23.021Z,102556.52
2019-06-26T14:14:57.824Z,102547.50
2019-06-26T14:17:27.232Z,102553.71
2019-06-26T14:19:57.865Z,102549.06
2019-06-26T14:22:28.676Z,102542.45
2019-06-26T14:24:59.563Z,102541.93
2019-06-26T14:27:30.231Z,102530.73
2019-06-26T14:30:01.081Z,102520.17
2019-06-26T14:32:31.685Z,102532.94
2019-06-26T14:35:02.534Z,102534.52
2019-06-26T14:37:33.306Z,102532.95
2019-06-26T14:40:05.989Z,102525.00
2019-06-26T14:42:36.785Z,102529.88
2019-06-26T14:45:10.211Z,102536.22
2019-06-26T14:47:40.828Z,102534.73
2019-06-26T14:50:13.226Z,102530.11
2019-06-26T14:52:45.998Z,102530.31
2019-06-26T14:55:16.327Z,102527.03
2019-06-26T14:57:47.013Z,102521.63
2019-06-26T15:00:18.893Z,102519.30
2019-06-26T15:02:49.595Z,102529.78
2019-06-26T15:10:07.773Z,102526.02
2019-06-26T15:13:14.938Z,102530.07
2019-06-26T15:15:44.403Z,102530.95
2019-06-26T15:18:13.920Z,102527.75
2019-06-26T15:20:44.550Z,102531.77
2019-06-26T15:26:23.459Z,102524.66
2019-06-26T15:28:52.930Z,102538.06
2019-06-26T15:31:22.606Z,102533.98
2019-06-26T15:33:52.239Z,102513.91
2019-06-26T15:36:21.685Z,102513.91
2019-06-26T15:38:51.235Z,102527.75
2019-06-26T15:41:20.725Z,102530.09
2019-06-26T15:43:50.414Z,102532.47
2019-06-26T15:46:19.978Z,102531.44
2019-06-26T15:48:50.475Z,102543.57
2019-06-26T15:51:21.401Z,102542.27
2019-06-26T15:53:50.869Z,102540.59
2019-06-26T15:56:20.382Z,102539.58
2019-06-26T15:58:49.857Z,102544.27
2019-06-26T16:01:19.361Z,102542.22
2019-06-26T16:03:49.969Z,102540.23
2019-06-26T16:06:19.521Z,102528.78
2019-06-26T16:08:49.075Z,102534.99
2019-06-26T16:11:19.615Z,102523.38
2019-06-26T16:13:50.189Z,102530.09
2019-06-26T16:16:20.234Z,102534.09
2019-06-26T16:18:51.299Z,102522.48
2019-06-26T16:21:21.104Z,102522.45
2019-06-26T16:23:50.649Z,102529.06
2019-06-26T16:26:20.253Z,102523.52
2019-06-26T16:28:49.832Z,102530.16
2019-06-26T16:31:19.395Z,102531.08
2019-06-26T16:33:49.031Z,102526.58
2019-06-26T16:36:18.496Z,102528.08
2019-06-26T16:38:48.050Z,102529.44
2019-06-26T16:41:17.689Z,102525.39
2019-06-26T16:43:47.207Z,102528.75
2019-06-26T16:46:18.084Z,102526.05
2019-06-26T16:48:47.726Z,102524.37
2019-06-26T16:51:18.332Z,102527.91
2019-06-26T16:53:47.835Z,102525.33
2019-06-26T16:56:17.441Z,102533.03
2019-06-26T16:58:47.128Z,102529.62
2019-06-26T17:01:16.635Z,102527.03
2019-06-26T17:03:46.078Z,102533.08
2019-06-26T17:06:16.574Z,102541.38
2019-06-26T17:08:46.039Z,102532.03
2019-06-26T17:11:15.463Z,102539.70
2019-06-26T17:13:45.036Z,102540.63
2019-06-26T17:16:14.481Z,102546.48
2019-06-26T17:18:44.069Z,102544.03
2019-06-26T17:21:13.687Z,102543.70
2019-06-26T17:23:43.262Z,102542.67
2019-06-26T17:26:15.271Z,102541.93
2019-06-26T17:28:44.841Z,102531.27
2019-06-26T17:31:14.295Z,102538.02
2019-06-26T17:33:43.712Z,102536.48
2019-06-26T17:36:13.303Z,102535.66
2019-06-26T17:38:42.900Z,102540.31
2019-06-26T17:41:18.268Z,102543.20
2019-06-26T17:43:47.855Z,102537.05
2019-06-26T17:46:31.383Z,102535.47
2019-06-26T17:49:01.116Z,102539.74
2019-06-26T17:51:30.635Z,102542.44
2019-06-26T17:54:00.313Z,102547.30
2019-06-26T17:56:29.875Z,102551.39
2019-06-26T17:58:59.556Z,102548.70
2019-06-26T18:01:41.428Z,102553.73
2019-06-26T18:04:10.972Z,102564.31
2019-06-26T18:06:41.539Z,102557.67
2019-06-26T18:09:12.326Z,102543.10
2019-06-26T18:11:42.981Z,102554.44
2019-06-26T18:14:12.523Z,102562.24
2019-06-26T18:16:43.101Z,102559.97
2019-06-26T18:19:12.620Z,102561.38
2019-06-26T18:21:42.218Z,102558.59
2019-06-26T18:24:11.916Z,102554.11
2019-06-26T18:26:41.476Z,102556.36
2019-06-26T18:29:11.056Z,102559.66
2019-06-26T18:31:43.900Z,102566.52
2019-06-26T18:34:13.464Z,102560.83
2019-06-26T18:36:42.906Z,102560.56
2019-06-26T18:39:12.424Z,102561.19
2019-06-26T18:41:42.095Z,102568.44
2019-06-26T18:44:11.563Z,102566.75
2019-06-26T18:46:42.292Z,102577.42
2019-06-26T18:49:11.738Z,102580.43
2019-06-26T18:51:42.269Z,102575.03
2019-06-26T18:54:11.852Z,102572.07
2019-06-26T18:56:41.359Z,102577.61
2019-06-26T18:59:10.929Z,102578.51
2019-06-26T19:01:40.504Z,102576.03
2019-06-26T19:04:10.057Z,102570.50
2019-06-26T19:06:39.534Z,102578.46
2019-06-26T19:09:09.104Z,102575.48
2019-06-26T19:11:38.571Z,102574.36
2019-06-26T19:14:09.590Z,102583.34
2019-06-26T19:16:39.093Z,102568.30
2019-06-26T19:19:12.132Z,102583.48
2019-06-26T19:21:40.005Z,102578.97
2019-06-26T19:24:10.777Z,102580.94
2019-06-26T19:26:40.587Z,102582.52
2019-06-26T19:29:10.719Z,102583.48
2019-06-26T19:31:41.368Z,102584.44
2019-06-26T19:34:10.895Z,102585.94
2019-06-26T19:36:50.088Z,102591.25
2019-06-26T19:39:11.809Z,102602.16
2019-06-26T19:41:41.504Z,102607.61
2019-06-26T19:44:11.026Z,102605.71
2019-06-26T19:46:42.038Z,102621.36
2019-06-26T19:49:11.624Z,102624.40
2019-06-26T19:51:41.182Z,102621.61
2019-06-26T19:54:26.129Z,102629.61
2019-06-26T19:56:41.886Z,102633.59
2019-06-26T19:59:11.420Z,102640.22
2019-06-26T20:01:40.876Z,102640.45
2019-06-26T20:04:13.422Z,102647.06
2019-06-26T20:06:42.952Z,102649.37
2019-06-26T20:09:12.608Z,102649.37
2019-06-26T20:11:42.048Z,102649.72
2019-06-26T20:14:11.672Z,102653.51
2019-06-26T20:16:41.206Z,102654.16
2019-06-26T20:19:10.659Z,102654.16
2019-06-26T20:21:40.403Z,102654.59
2019-06-26T20:24:09.980Z,102664.62
2019-06-26T20:26:39.406Z,102667.14
2019-06-26T20:29:08.947Z,102670.19
2019-06-26T20:31:38.406Z,102676.35
2019-06-26T20:34:08.075Z,102680.92
2019-06-26T20:36:37.566Z,102677.05
2019-06-26T20:39:07.256Z,102677.80
2019-06-26T20:41:36.802Z,102685.53
2019-06-26T20:44:07.073Z,102690.00
2019-06-26T20:46:36.629Z,102685.98
2019-06-26T20:49:06.178Z,102692.58
2019-06-26T20:51:35.725Z,102700.56
2019-06-26T20:54:05.879Z,102706.23
2019-06-26T20:56:35.505Z,102714.39
2019-06-26T20:59:05.046Z,102714.16
2019-06-26T21:01:34.761Z,102717.50
2019-06-26T21:04:04.886Z,102719.75
2019-06-26T21:06:34.559Z,102713.09
2019-06-26T21:09:04.998Z,102724.61
2019-06-26T21:11:34.757Z,102727.50
2019-06-26T21:14:04.924Z,102731.25
2019-06-26T21:16:34.433Z,102726.12
2019-06-26T21:19:04.037Z,102727.93
2019-06-26T21:21:33.493Z,102727.52
2019-06-26T21:24:03.278Z,102733.66
2019-06-26T21:26:32.715Z,102735.05
2019-06-26T21:29:02.182Z,102733.13
2019-06-26T21:31:31.933Z,102739.48
2019-06-26T21:34:01.487Z,102733.34
2019-06-26T21:36:31.072Z,102740.84
2019-06-26T21:39:00.557Z,102746.42
2019-06-26T21:41:31.468Z,102745.43
2019-06-26T21:44:00.964Z,102744.33
2019-06-26T21:46:30.398Z,102746.23
2019-06-26T21:49:00.941Z,102757.25
2019-06-26T21:51:30.527Z,102757.12
2019-06-26T21:54:00.083Z,102753.13
2019-06-26T21:56:47.077Z,102744.02
2019-06-26T21:59:34.400Z,102757.00
2019-06-26T22:02:22.022Z,102750.70
2019-06-26T22:04:50.784Z,102759.63
2019-06-26T22:07:27.766Z,102763.44
2019-06-26T22:09:58.934Z,102761.58
2019-06-26T22:12:28.503Z,102763.86
2019-06-26T22:14:58.009Z,102761.73
2019-06-26T22:17:27.748Z,102770.27
2019-06-26T22:19:57.310Z,102763.59
2019-06-26T22:22:26.772Z,102765.36
2019-06-26T22:24:56.348Z,102763.05
2019-06-26T22:27:26.968Z,102765.33
2019-06-26T22:29:56.450Z,102771.27
2019-06-26T22:32:25.930Z,102772.25
2019-06-26T22:34:55.455Z,102775.00
2019-06-26T22:37:24.996Z,102771.67
2019-06-26T22:39:54.571Z,102773.14
2019-06-26T22:42:24.057Z,102777.35
2019-06-26T22:44:53.661Z,102773.84
2019-06-26T22:47:23.230Z,102777.41
2019-06-26T22:49:52.745Z,102776.88
2019-06-26T22:52:22.312Z,102791.14
2019-06-26T22:54:51.910Z,102791.05
2019-06-26T22:57:21.392Z,102800.80
2019-06-26T22:59:51.105Z,102801.64
2019-06-26T23:02:20.608Z,102802.98
2019-06-26T23:04:50.188Z,102799.69
2019-06-26T23:07:19.699Z,102805.23
2019-06-26T23:09:49.210Z,102802.20
2019-06-26T23:12:18.820Z,102801.39
2019-06-26T23:15:00.366Z,102810.83
2019-06-26T23:17:29.885Z,102808.38
2019-06-26T23:19:59.354Z,102797.98
2019-06-26T23:22:29.137Z,102811.11
2019-06-26T23:24:58.564Z,102804.74
2019-06-26T23:27:28.076Z,102802.16
2019-06-26T23:29:57.535Z,102805.50
2019-06-26T23:32:27.037Z,102805.23
2019-06-26T23:34:57.557Z,102801.45
2019-06-26T23:37:27.024Z,102808.72
2019-06-26T23:39:56.834Z,102805.75
2019-06-26T23:42:26.385Z,102799.44
2019-06-26T23:44:55.898Z,102800.63
2019-06-26T23:47:25.417Z,102799.99
2019-06-26T23:49:54.912Z,102804.99
2019-06-26T23:52:24.434Z,102810.06
2019-06-26T23:54:53.960Z,102815.06
2019-06-26T23:57:23.469Z,102806.88
2019-06-26T23:59:52.903Z,102814.20
